createdAt,value
2019-04-21T16:05:49.139Z,14.57
2019-04-21T16:07:54.177Z,36.10
2019-04-21T16:09:59.811Z,28.97
2019-04-21T16:12:04.266Z,17.20
2019-04-21T16:14:10.024Z,14.30
2019-04-21T16:16:14.686Z,16.90
2019-04-21T16:18:20.506Z,16.83
2019-04-21T16:20:26.048Z,16.43
2019-04-21T16:22:30.767Z,15.60
2019-04-21T16:24:35.662Z,15.67
2019-04-21T16:26:40.505Z,14.10
2019-04-21T16:28:45.032Z,15.87
2019-04-21T16:30:49.600Z,15.40
2019-04-21T16:32:54.413Z,17.70
2019-04-21T16:35:03.928Z,24.73
2019-04-21T16:37:05.648Z,13.33
2019-04-21T16:39:11.476Z,18.43
2019-04-21T16:41:16.202Z,15.60
2019-04-21T16:43:21.080Z,18.83
2019-04-21T16:45:25.400Z,13.50
2019-04-21T16:47:30.311Z,21.90
2019-04-21T16:49:35.844Z,20.93
2019-04-21T16:51:40.370Z,15.90
2019-04-21T16:53:50.286Z,17.37
2019-04-21T16:56:20.611Z,12.43
2019-04-21T16:58:28.924Z,12.00
2019-04-21T17:00:41.826Z,16.23
2019-04-21T17:02:40.817Z,17.20
2019-04-21T17:04:46.523Z,13.10
2019-04-21T17:06:51.326Z,14.80
2019-04-21T17:08:56.819Z,17.00
2019-04-21T17:11:10.782Z,12.87
2019-04-21T17:13:07.112Z,14.97
2019-04-21T17:15:28.286Z,20.10
2019-04-21T17:17:42.994Z,13.40
2019-04-21T17:19:29.868Z,13.30
2019-04-21T17:21:32.150Z,14.73
2019-04-21T17:23:37.676Z,20.97
2019-04-21T17:25:43.339Z,14.50
2019-04-21T17:27:48.971Z,13.30
2019-04-21T17:29:54.771Z,12.27
2019-04-21T17:32:02.375Z,11.47
2019-04-21T17:34:10.404Z,13.50
2019-04-21T17:36:11.512Z,20.60
2019-04-21T17:38:16.397Z,12.90
2019-04-21T17:40:24.068Z,11.97
2019-04-21T17:42:36.406Z,9.67
2019-04-21T17:44:35.072Z,13.67
2019-04-21T17:46:47.829Z,9.10
2019-04-21T17:48:47.138Z,9.80
2019-04-21T17:51:23.425Z,11.20
2019-04-21T17:53:38.214Z,11.07
2019-04-21T17:55:40.899Z,14.60
2019-04-21T17:58:08.391Z,10.73
2019-04-21T18:00:13.910Z,13.10
2019-04-21T18:02:17.513Z,10.67
2019-04-21T18:04:28.949Z,10.30
2019-04-21T18:06:30.933Z,20.90
2019-04-21T18:08:44.885Z,14.50
2019-04-21T18:10:39.003Z,11.97
2019-04-21T18:12:43.599Z,15.27
2019-04-21T18:14:51.832Z,9.40
2019-04-21T18:16:46.976Z,9.50
2019-04-21T18:18:50.804Z,9.93
2019-04-21T18:21:00.913Z,12.77
2019-04-21T18:23:34.920Z,15.30
2019-04-21T18:25:44.377Z,12.47
2019-04-21T18:27:36.753Z,14.93
2019-04-21T18:29:44.448Z,13.30
2019-04-21T18:31:50.597Z,13.10
2019-04-21T18:34:08.571Z,12.00
2019-04-21T18:36:29.052Z,15.03
2019-04-21T18:38:57.077Z,24.53
2019-04-21T18:40:48.165Z,24.00
2019-04-21T18:43:23.500Z,11.77
2019-04-21T18:45:50.283Z,15.50
2019-04-21T18:48:01.687Z,14.30
2019-04-21T18:49:56.211Z,13.27
2019-04-21T18:52:19.242Z,13.63
2019-04-21T18:54:44.372Z,14.07
2019-04-21T18:56:33.949Z,12.03
2019-04-21T18:58:38.611Z,15.73
2019-04-21T19:00:44.145Z,11.77
2019-04-21T19:02:51.728Z,11.30
2019-04-21T19:05:05.875Z,21.13
2019-04-21T19:07:12.757Z,14.20
2019-04-21T19:09:34.159Z,11.07
2019-04-21T19:11:28.561Z,13.70
2019-04-21T19:16:22.502Z,19.73
2019-04-21T19:18:35.436Z,10.80
2019-04-21T19:20:20.866Z,12.80
2019-04-21T19:22:20.729Z,20.80
2019-04-21T19:24:29.093Z,18.53
2019-04-21T19:26:37.757Z,13.93
2019-04-21T19:28:47.637Z,14.63
2019-04-21T19:30:52.592Z,13.90
2019-04-21T19:32:51.573Z,18.13
2019-04-21T19:34:45.317Z,12.30
2019-04-21T19:36:55.767Z,14.97
2019-04-21T19:39:06.500Z,12.83
2019-04-21T19:41:23.019Z,13.60
2019-04-21T19:43:31.610Z,19.90
2019-04-21T19:45:32.195Z,14.20
2019-04-21T19:47:46.789Z,12.80
2019-04-21T19:49:50.076Z,20.87
2019-04-21T19:51:51.564Z,14.00
2019-04-21T19:53:53.532Z,16.17
2019-04-21T19:55:50.000Z,19.83
2019-04-21T19:57:54.791Z,17.90
2019-04-21T20:00:03.704Z,14.50
2019-04-21T20:02:06.918Z,17.57
2019-04-21T20:04:12.365Z,16.77
2019-04-21T20:06:34.468Z,14.13
2019-04-21T20:08:36.216Z,18.30
2019-04-21T20:10:51.834Z,19.73
2019-04-21T20:12:49.911Z,24.40
2019-04-21T20:15:04.868Z,16.83
2019-04-21T20:16:59.329Z,17.43
2019-04-21T20:18:59.197Z,18.83
2019-04-21T20:20:59.307Z,18.20
2019-04-21T20:23:08.880Z,28.00
2019-04-21T20:25:15.221Z,22.43
2019-04-21T20:27:29.537Z,25.00
2019-04-21T20:29:46.980Z,18.33
2019-04-21T20:31:45.975Z,24.03
2019-04-21T20:36:02.928Z,25.60
2019-04-21T20:38:01.981Z,21.27
2019-04-21T20:40:02.229Z,28.60
2019-04-21T20:42:15.634Z,32.50
2019-04-21T20:44:23.021Z,29.33
2019-04-21T20:46:35.383Z,26.53
2019-04-21T20:48:30.578Z,28.50
2019-04-21T20:50:37.255Z,26.53
2019-04-21T20:52:53.804Z,21.50
2019-04-21T20:54:53.890Z,32.57
2019-04-21T20:57:04.280Z,24.63
2019-04-21T20:59:07.810Z,26.57
2019-04-21T21:03:24.251Z,23.17
2019-04-21T21:05:27.293Z,24.33
2019-04-21T21:07:49.014Z,27.40
2019-04-21T21:09:44.961Z,22.87
2019-04-21T21:12:04.168Z,27.17
2019-04-21T21:13:52.646Z,22.53
2019-04-21T21:16:10.161Z,20.30
2019-04-21T21:18:16.010Z,24.03
2019-04-21T21:20:20.910Z,21.70
2019-04-21T21:22:14.713Z,23.57
2019-04-21T21:24:31.211Z,25.27
2019-04-21T21:26:31.357Z,23.87
2019-04-21T21:28:32.806Z,18.93
2019-04-21T21:30:38.616Z,26.03
2019-04-21T21:32:51.112Z,29.53
2019-04-21T21:34:57.197Z,24.77
2019-04-21T21:37:16.034Z,20.70
2019-04-21T21:39:10.956Z,27.27
2019-04-21T21:41:07.648Z,29.17
2019-04-21T21:43:08.290Z,33.00
2019-04-21T21:45:15.595Z,32.60
2019-04-21T21:47:29.160Z,39.83
2019-04-21T21:49:33.580Z,37.50
2019-04-21T21:51:42.262Z,38.27
2019-04-21T21:53:36.223Z,40.37
2019-04-21T21:55:40.612Z,40.50
2019-04-21T21:57:50.350Z,37.13
2019-04-21T21:59:52.909Z,38.70
2019-04-21T22:01:58.327Z,41.20
2019-04-21T22:04:11.052Z,40.13
2019-04-21T22:06:13.660Z,42.40
2019-04-21T22:08:16.261Z,38.20
2019-04-21T22:10:20.860Z,42.80
2019-04-21T22:12:26.107Z,58.50
2019-04-21T22:14:39.107Z,60.00
2019-04-21T22:16:47.877Z,49.73
2019-04-21T22:19:05.605Z,42.33
2019-04-21T22:21:02.296Z,44.57
2019-04-21T22:23:03.985Z,47.33
2019-04-21T22:25:10.655Z,37.63
2019-04-21T22:27:09.509Z,40.80
2019-04-21T22:29:13.891Z,42.13
2019-04-21T22:31:24.584Z,39.43
2019-04-21T22:33:25.767Z,32.87
2019-04-21T22:35:38.926Z,37.50
2019-04-21T22:37:47.408Z,30.93
2019-04-21T22:39:59.483Z,28.90
2019-04-21T22:42:00.523Z,33.53
2019-04-21T22:43:55.896Z,31.60
2019-04-21T22:46:01.177Z,36.50
2019-04-21T22:48:12.436Z,35.87
2019-04-21T22:50:18.293Z,31.47
2019-04-21T22:52:25.836Z,41.43
2019-04-21T22:54:34.308Z,42.70
2019-04-21T22:56:36.118Z,38.43
2019-04-21T22:58:44.028Z,36.40
2019-04-21T23:00:52.833Z,31.80
2019-04-21T23:03:00.618Z,36.73
2019-04-21T23:05:00.106Z,34.37
2019-04-21T23:07:10.097Z,31.87
2019-04-21T23:09:11.091Z,34.43
2019-04-21T23:11:16.665Z,35.07
2019-04-21T23:13:23.594Z,30.83
2019-04-21T23:15:35.637Z,31.90
2019-04-21T23:17:54.313Z,34.73
2019-04-21T23:20:03.230Z,33.63
2019-04-21T23:22:02.452Z,34.97
2019-04-21T23:24:11.567Z,36.00
2019-04-21T23:26:20.993Z,34.63
2019-04-21T23:28:15.818Z,31.33
2019-04-21T23:30:32.537Z,35.57
2019-04-21T23:32:29.525Z,31.17
2019-04-21T23:34:28.260Z,32.43
2019-04-21T23:36:31.398Z,33.40
2019-04-21T23:38:40.663Z,41.33
2019-04-21T23:43:00.167Z,33.40
2019-04-21T23:45:04.638Z,35.50
2019-04-21T23:47:12.018Z,32.93
2019-04-21T23:49:28.317Z,32.90
2019-04-21T23:51:32.717Z,35.07
2019-04-21T23:53:25.741Z,32.97
2019-04-21T23:55:29.947Z,33.57
2019-04-21T23:57:40.666Z,35.83
2019-04-21T23:59:45.324Z,34.73
